createdAt,value
2017-10-14T00:02:17.739Z,101754.74
2017-10-14T00:04:46.408Z,101752.16
2017-10-14T00:07:15.026Z,101750.90
2017-10-14T00:09:43.681Z,101757.70
2017-10-14T00:12:12.212Z,101755.94
2017-10-14T00:14:40.830Z,101748.73
2017-10-14T00:17:09.462Z,101745.63
2017-10-14T00:19:38.126Z,101746.47
2017-10-14T00:22:06.780Z,101741.66
2017-10-14T00:24:35.400Z,101745.05
2017-10-14T00:27:04.092Z,101749.27
2017-10-14T00:29:32.707Z,101746.67
2017-10-14T00:32:01.415Z,101750.56
2017-10-14T00:34:30.055Z,101744.92
2017-10-14T00:36:58.699Z,101740.62
2017-10-14T00:39:27.384Z,101739.74
2017-10-14T00:41:55.998Z,101745.34
2017-10-14T00:44:24.631Z,101735.31
2017-10-14T00:46:53.316Z,101737.91
2017-10-14T00:49:21.956Z,101735.73
2017-10-14T00:51:50.595Z,101741.33
2017-10-14T00:54:19.303Z,101742.16
2017-10-14T00:56:47.623Z,101743.45
2017-10-14T00:59:16.003Z,101748.13
2017-10-14T01:01:44.626Z,101744.30
2017-10-14T01:04:13.285Z,101745.46
2017-10-14T01:06:41.390Z,101750.62
2017-10-14T01:09:10.087Z,101747.58
2017-10-14T01:11:38.764Z,101745.45
2017-10-14T01:14:07.394Z,101747.16
2017-10-14T01:16:36.086Z,101745.41
2017-10-14T01:19:04.727Z,101748.83
2017-10-14T01:21:33.399Z,101744.03
2017-10-14T01:24:01.751Z,101749.66
2017-10-14T01:26:40.242Z,101743.16
2017-10-14T01:29:08.454Z,101745.20
2017-10-14T01:31:37.126Z,101746.53
2017-10-14T01:34:05.438Z,101734.42
2017-10-14T01:36:33.810Z,101734.38
2017-10-14T01:39:02.539Z,101731.79
2017-10-14T01:41:31.196Z,101729.53
2017-10-14T01:43:59.890Z,101729.12
2017-10-14T01:46:28.198Z,101727.35
2017-10-14T01:48:56.888Z,101732.53
2017-10-14T01:51:25.206Z,101735.50
2017-10-14T01:53:53.567Z,101732.48
2017-10-14T01:56:21.913Z,101732.03
2017-10-14T01:58:50.619Z,101732.45
2017-10-14T02:01:19.240Z,101734.98
2017-10-14T02:03:47.858Z,101737.98
2017-10-14T02:06:16.520Z,101730.27
2017-10-14T02:08:45.222Z,101723.28
2017-10-14T02:11:13.908Z,101726.30
2017-10-14T02:13:42.534Z,101729.17
2017-10-14T02:16:11.237Z,101734.86
2017-10-14T02:18:39.876Z,101729.67
2017-10-14T02:21:08.627Z,101736.56
2017-10-14T02:23:37.267Z,101737.11
2017-10-14T02:26:05.887Z,101741.70
2017-10-14T02:28:34.565Z,101736.02
2017-10-14T02:31:03.241Z,101740.66
2017-10-14T02:33:31.912Z,101738.56
2017-10-14T02:36:00.626Z,101734.18
2017-10-14T02:38:29.254Z,101729.42
2017-10-14T02:40:57.870Z,101740.70
2017-10-14T02:43:26.556Z,101736.35
2017-10-14T02:45:55.205Z,101740.20
2017-10-14T02:48:23.831Z,101735.85
2017-10-14T02:50:52.489Z,101742.78
2017-10-14T02:53:21.113Z,101741.48
2017-10-14T02:55:49.760Z,101734.59
2017-10-14T02:58:18.455Z,101737.65
2017-10-14T03:00:47.086Z,101729.75
2017-10-14T03:03:15.782Z,101728.87
2017-10-14T03:05:44.408Z,101734.05
2017-10-14T03:08:13.050Z,101739.69
2017-10-14T03:10:41.705Z,101737.10
2017-10-14T03:13:10.309Z,101739.19
2017-10-14T03:15:38.981Z,101733.22
2017-10-14T03:18:07.682Z,101724.57
2017-10-14T03:20:36.350Z,101720.64
2017-10-14T03:23:04.965Z,101712.03
2017-10-14T03:25:33.663Z,101716.76
2017-10-14T03:28:02.322Z,101705.10
2017-10-14T03:30:30.998Z,101709.86
2017-10-14T03:33:01.340Z,101707.28
2017-10-14T03:35:30.016Z,101711.20
2017-10-14T03:37:58.634Z,101706.77
2017-10-14T03:40:27.307Z,101697.34
2017-10-14T03:42:55.927Z,101707.66
2017-10-14T03:45:24.598Z,101713.70
2017-10-14T03:47:53.214Z,101717.63
2017-10-14T03:50:21.833Z,101714.16
2017-10-14T03:52:50.495Z,101731.05
2017-10-14T03:55:19.122Z,101721.06
2017-10-14T03:57:47.791Z,101719.89
2017-10-14T04:00:16.523Z,101722.02
2017-10-14T04:02:45.150Z,101711.99
2017-10-14T04:05:13.770Z,101711.63
2017-10-14T04:07:42.526Z,101713.33
2017-10-14T04:10:11.173Z,101717.22
2017-10-14T04:12:39.835Z,101722.81
2017-10-14T04:15:08.486Z,101718.05
2017-10-14T04:17:38.531Z,101721.56
2017-10-14T04:20:07.216Z,101725.41
2017-10-14T04:22:35.895Z,101720.22
2017-10-14T04:25:04.510Z,101723.28
2017-10-14T04:27:37.306Z,101718.09
2017-10-14T04:30:05.929Z,101718.09
2017-10-14T04:32:34.552Z,101717.17
2017-10-14T04:35:03.214Z,101724.48
2017-10-14T04:37:35.752Z,101726.28
2017-10-14T04:40:04.423Z,101722.44
2017-10-14T04:42:33.110Z,101726.28
2017-10-14T04:45:01.763Z,101716.80
2017-10-14T04:47:30.422Z,101721.98
2017-10-14T04:49:59.048Z,101727.20
2017-10-14T04:52:27.708Z,101728.13
2017-10-14T04:54:56.346Z,101723.36
2017-10-14T04:57:25.028Z,101722.06
2017-10-14T05:00:10.008Z,101722.06
2017-10-14T05:02:39.538Z,101722.91
2017-10-14T05:05:08.187Z,101721.23
2017-10-14T05:07:38.446Z,101714.72
2017-10-14T05:10:07.192Z,101709.53
2017-10-14T05:12:35.821Z,101720.31
2017-10-14T05:15:04.302Z,101717.77
2017-10-14T05:17:40.068Z,101715.59
2017-10-14T05:20:08.723Z,101713.42
2017-10-14T05:22:37.243Z,101717.30
2017-10-14T05:25:05.862Z,101710.41
2017-10-14T05:27:37.869Z,101713.88
2017-10-14T05:30:06.552Z,101716.52
2017-10-14T05:32:35.087Z,101711.29
2017-10-14T05:35:03.562Z,101705.69
2017-10-14T05:37:35.195Z,101711.29
2017-10-14T05:40:03.656Z,101705.69
2017-10-14T05:42:32.318Z,101711.29
2017-10-14T05:45:00.946Z,101719.94
2017-10-14T05:47:29.598Z,101724.20
2017-10-14T05:49:58.211Z,101730.34
2017-10-14T05:52:26.879Z,101732.88
2017-10-14T05:54:55.511Z,101728.55
2017-10-14T05:57:24.170Z,101737.61
2017-10-14T05:59:52.883Z,101745.00
2017-10-14T06:02:21.507Z,101743.62
2017-10-14T06:04:50.183Z,101746.63
2017-10-14T06:07:18.799Z,101744.50
2017-10-14T06:09:47.467Z,101742.78
2017-10-14T06:12:16.094Z,101737.65
2017-10-14T06:14:44.759Z,101737.56
2017-10-14T06:17:13.402Z,101744.08
2017-10-14T06:19:42.072Z,101744.45
2017-10-14T06:22:10.726Z,101748.34
2017-10-14T06:24:39.357Z,101751.39
2017-10-14T06:27:08.029Z,101755.73
2017-10-14T06:29:36.647Z,101753.10
2017-10-14T06:32:05.279Z,101759.45
2017-10-14T06:34:33.943Z,101761.62
2017-10-14T06:37:02.576Z,101766.34
2017-10-14T06:39:31.256Z,101765.92
2017-10-14T06:41:59.926Z,101768.55
2017-10-14T06:44:28.470Z,101772.44
2017-10-14T06:46:57.095Z,101771.10
2017-10-14T06:49:25.726Z,101772.48
2017-10-14T06:51:54.428Z,101771.14
2017-10-14T06:54:23.110Z,101767.20
2017-10-14T06:56:51.774Z,101767.20
2017-10-14T06:59:20.421Z,101770.23
2017-10-14T07:01:49.083Z,101779.73
2017-10-14T07:04:17.739Z,101784.67
2017-10-14T07:06:46.382Z,101785.25
2017-10-14T07:09:15.057Z,101792.61
2017-10-14T07:11:43.684Z,101794.31
2017-10-14T07:14:12.374Z,101807.23
2017-10-14T07:16:41.041Z,101799.04
2017-10-14T07:19:09.678Z,101807.23
2017-10-14T07:21:38.346Z,101808.86
2017-10-14T07:24:06.963Z,101807.94
2017-10-14T07:26:35.627Z,101807.05
2017-10-14T07:29:04.246Z,101802.30
2017-10-14T07:31:32.899Z,101809.19
2017-10-14T07:34:01.513Z,101809.65
2017-10-14T07:36:30.183Z,101812.66
2017-10-14T07:38:58.861Z,101808.39
2017-10-14T07:41:27.561Z,101804.88
2017-10-14T07:43:56.182Z,101815.33
2017-10-14T07:46:24.852Z,101821.68
2017-10-14T07:48:53.479Z,101819.92
2017-10-14T07:51:22.164Z,101821.18
2017-10-14T07:53:50.785Z,101819.42
2017-10-14T07:56:19.402Z,101820.63
2017-10-14T07:58:48.082Z,101816.33
2017-10-14T08:01:16.555Z,101821.55
2017-10-14T08:03:45.034Z,101817.13
2017-10-14T08:06:13.709Z,101815.40
2017-10-14T08:08:42.326Z,101819.24
2017-10-14T08:11:10.836Z,101820.12
2017-10-14T08:13:39.443Z,101817.86
2017-10-14T08:16:08.108Z,101814.44
2017-10-14T08:18:36.742Z,101825.22
2017-10-14T08:21:05.435Z,101831.15
2017-10-14T08:23:34.039Z,101822.08
2017-10-14T08:26:02.728Z,101825.92
2017-10-14T08:28:31.200Z,101832.78
2017-10-14T08:31:00.001Z,101837.58
2017-10-14T08:33:28.634Z,101835.78
2017-10-14T08:36:11.800Z,101835.45
2017-10-14T08:38:41.283Z,101839.63
2017-10-14T08:41:09.989Z,101845.61
2017-10-14T08:43:38.665Z,101846.44
2017-10-14T08:46:07.298Z,101841.67
2017-10-14T08:48:35.948Z,101839.12
2017-10-14T08:51:04.632Z,101848.53
2017-10-14T08:53:33.265Z,101853.71
2017-10-14T08:56:01.935Z,101859.35
2017-10-14T08:58:30.546Z,101859.72
2017-10-14T09:00:59.230Z,101863.56
2017-10-14T09:03:27.744Z,101873.89
2017-10-14T09:05:56.362Z,101869.54
2017-10-14T09:08:25.031Z,101874.72
2017-10-14T09:10:53.645Z,101873.89
2017-10-14T09:13:22.318Z,101877.19
2017-10-14T09:15:50.938Z,101885.09
2017-10-14T09:18:19.608Z,101897.33
2017-10-14T09:20:48.307Z,101890.89
2017-10-14T09:23:16.958Z,101897.75
2017-10-14T09:25:45.471Z,101896.87
2017-10-14T09:28:14.005Z,101899.97
2017-10-14T09:30:42.684Z,101895.58
2017-10-14T09:33:11.336Z,101896.74
2017-10-14T09:35:39.975Z,101891.64
2017-10-14T09:38:08.671Z,101886.38
2017-10-14T09:40:37.196Z,101893.18
2017-10-14T09:43:05.906Z,101887.13
2017-10-14T09:45:34.524Z,101884.06
2017-10-14T09:48:03.183Z,101880.64
2017-10-14T09:50:31.794Z,101871.06
2017-10-14T09:53:00.454Z,101873.53
2017-10-14T09:55:29.107Z,101872.19
2017-10-14T09:57:57.745Z,101873.91
2017-10-14T10:00:26.414Z,101878.92
2017-10-14T10:02:55.037Z,101880.17
2017-10-14T10:05:23.662Z,101883.59
2017-10-14T10:07:52.328Z,101883.09
2017-10-14T10:10:20.938Z,101884.76
2017-10-14T10:12:49.593Z,101884.76
2017-10-14T10:15:18.222Z,101885.51
2017-10-14T10:17:46.883Z,101885.13
2017-10-14T10:20:15.515Z,101890.66
2017-10-14T10:22:44.176Z,101888.44
2017-10-14T10:25:12.851Z,101893.11
2017-10-14T10:27:41.540Z,101896.41
2017-10-14T10:30:10.171Z,101895.98
2017-10-14T10:32:38.697Z,101896.88
2017-10-14T10:35:07.324Z,101895.11
2017-10-14T10:37:36.207Z,101895.58
2017-10-14T10:40:04.864Z,101892.52
2017-10-14T10:42:33.527Z,101894.70
2017-10-14T10:45:02.147Z,101902.38
2017-10-14T10:47:35.380Z,101893.34
2017-10-14T10:50:04.007Z,101898.03
2017-10-14T10:52:32.676Z,101885.91
2017-10-14T10:55:01.298Z,101880.22
2017-10-14T10:57:31.540Z,101884.90
2017-10-14T11:00:00.255Z,101884.06
2017-10-14T11:02:28.879Z,101882.67
2017-10-14T11:04:57.558Z,101882.22
2017-10-14T11:07:26.187Z,101883.98
2017-10-14T11:09:54.843Z,101877.83
2017-10-14T11:12:23.479Z,101884.30
2017-10-14T11:14:52.163Z,101885.61
2017-10-14T11:17:20.815Z,101888.06
2017-10-14T11:19:49.474Z,101894.91
2017-10-14T11:22:18.094Z,101899.17
2017-10-14T11:24:46.716Z,101893.53
2017-10-14T11:27:15.374Z,101904.31
2017-10-14T11:29:43.979Z,101905.28
2017-10-14T11:32:12.667Z,101907.45
2017-10-14T11:34:41.291Z,101916.91
2017-10-14T11:37:09.926Z,101916.86
2017-10-14T11:39:38.615Z,101909.55
2017-10-14T11:42:07.226Z,101901.87
2017-10-14T11:44:35.892Z,101900.14
2017-10-14T11:47:04.526Z,101900.93
2017-10-14T11:49:33.211Z,101907.09
2017-10-14T11:52:01.959Z,101907.79
2017-10-14T11:54:30.579Z,101910.09
2017-10-14T11:56:59.247Z,101902.19
2017-10-14T11:59:27.871Z,101893.11
2017-10-14T12:01:56.534Z,101894.83
2017-10-14T12:04:25.179Z,101890.02
2017-10-14T12:06:53.847Z,101891.81
2017-10-14T12:09:22.524Z,101893.03
2017-10-14T12:11:53.877Z,101889.59
2017-10-14T12:14:22.498Z,101896.58
2017-10-14T12:16:51.133Z,101902.14
2017-10-14T12:19:19.802Z,101904.36
2017-10-14T12:21:48.421Z,101892.28
2017-10-14T12:24:17.034Z,101897.46
2017-10-14T12:26:45.703Z,101907.38
2017-10-14T12:29:14.374Z,101898.30
2017-10-14T12:31:43.017Z,101908.20
2017-10-14T12:34:11.679Z,101906.53
2017-10-14T12:36:40.355Z,101896.67
2017-10-14T12:39:09.006Z,101898.38
2017-10-14T12:41:37.691Z,101905.24
2017-10-14T12:44:06.326Z,101905.84
2017-10-14T12:46:34.983Z,101913.53
2017-10-14T12:49:03.652Z,101910.15
2017-10-14T12:51:32.288Z,101907.05
2017-10-14T12:54:00.954Z,101910.66
2017-10-14T12:56:29.592Z,101904.63
2017-10-14T12:58:58.265Z,101902.50
2017-10-14T13:01:26.902Z,101893.42
2017-10-14T13:03:55.579Z,101891.37
2017-10-14T13:06:24.198Z,101892.13
2017-10-14T13:08:52.871Z,101892.59
2017-10-14T13:11:21.526Z,101883.14
2017-10-14T13:13:50.167Z,101883.60
2017-10-14T13:16:18.793Z,101876.23
2017-10-14T13:18:47.471Z,101877.12
2017-10-14T13:21:16.104Z,101868.84
2017-10-14T13:23:44.758Z,101869.05
2017-10-14T13:26:13.371Z,101864.24
2017-10-14T13:28:42.022Z,101860.39
2017-10-14T13:31:10.651Z,101862.07
2017-10-14T13:33:39.274Z,101863.87
2017-10-14T13:36:07.929Z,101866.05
2017-10-14T13:38:36.558Z,101861.70
2017-10-14T13:41:05.179Z,101864.70
2017-10-14T13:43:33.839Z,101860.77
2017-10-14T13:46:02.465Z,101866.42
2017-10-14T13:48:31.163Z,101868.64
2017-10-14T13:50:59.786Z,101870.02
2017-10-14T13:53:28.458Z,101868.78
2017-10-14T13:55:57.083Z,101874.37
2017-10-14T13:58:25.714Z,101887.79
2017-10-14T14:00:54.383Z,101893.39
2017-10-14T14:03:23.004Z,101890.90
2017-10-14T14:05:51.684Z,101893.39
2017-10-14T14:08:20.310Z,101892.89
2017-10-14T14:10:48.934Z,101892.11
2017-10-14T14:13:17.592Z,101887.80
2017-10-14T14:15:46.219Z,101893.03
2017-10-14T14:18:14.889Z,101903.11
2017-10-14T14:20:43.575Z,101896.55
2017-10-14T14:23:12.236Z,101902.98
2017-10-14T14:25:40.722Z,101900.39
2017-10-14T14:28:09.267Z,101906.49
2017-10-14T14:30:37.766Z,101908.33
2017-10-14T14:33:06.281Z,101914.36
2017-10-14T14:35:34.987Z,101930.33
2017-10-14T14:38:03.510Z,101935.89
2017-10-14T14:40:31.995Z,101933.38
2017-10-14T14:43:00.466Z,101929.99
2017-10-14T14:45:29.121Z,101952.48
2017-10-14T14:47:57.754Z,101952.95
2017-10-14T14:50:26.415Z,101952.06
2017-10-14T14:52:55.031Z,101953.45
2017-10-14T14:55:23.686Z,101950.44
2017-10-14T14:57:52.366Z,101950.89
2017-10-14T15:00:21.014Z,101946.63
2017-10-14T15:02:49.639Z,101952.33
2017-10-14T15:05:18.294Z,101951.95
2017-10-14T15:07:46.921Z,101960.56
2017-10-14T15:10:15.591Z,101953.33
2017-10-14T15:12:44.232Z,101957.22
2017-10-14T15:15:12.879Z,101968.46
2017-10-14T15:17:41.505Z,101962.53
2017-10-14T15:20:10.169Z,101962.11
2017-10-14T15:22:38.804Z,101965.99
2017-10-14T15:25:07.458Z,101966.91
2017-10-14T15:27:36.424Z,101975.15
2017-10-14T15:30:05.119Z,101974.48
2017-10-14T15:32:33.739Z,101979.63
2017-10-14T15:35:02.261Z,101980.41
2017-10-14T15:37:32.541Z,101970.64
2017-10-14T15:40:01.212Z,101971.09
2017-10-14T15:42:29.914Z,101977.08
2017-10-14T15:44:58.546Z,101971.56
2017-10-14T15:47:27.199Z,101969.05
2017-10-14T15:49:55.883Z,101959.14
2017-10-14T15:52:24.498Z,101959.19
2017-10-14T15:54:53.157Z,101960.11
2017-10-14T15:57:21.630Z,101960.94
2017-10-14T15:59:50.298Z,101959.23
2017-10-14T16:02:18.926Z,101960.61
2017-10-14T16:04:47.603Z,101967.08
2017-10-14T16:07:16.214Z,101962.86
2017-10-14T16:09:44.867Z,101959.43
2017-10-14T16:12:13.482Z,101956.84
2017-10-14T16:14:42.147Z,101958.14
2017-10-14T16:17:10.762Z,101953.45
2017-10-14T16:19:39.423Z,101959.14
2017-10-14T16:22:08.086Z,101969.05
2017-10-14T16:24:36.698Z,101967.80
2017-10-14T16:27:05.354Z,101971.34
2017-10-14T16:29:33.855Z,101973.94
2017-10-14T16:32:02.475Z,101968.38
2017-10-14T16:34:31.134Z,101965.41
2017-10-14T16:36:59.764Z,101971.50
2017-10-14T16:39:28.376Z,101975.02
2017-10-14T16:41:57.058Z,101976.39
2017-10-14T16:44:25.678Z,101977.73
2017-10-14T16:46:54.294Z,101980.78
2017-10-14T16:49:22.953Z,101980.33
2017-10-14T16:51:51.611Z,101984.30
2017-10-14T16:54:20.311Z,101979.16
2017-10-14T16:56:48.946Z,101982.66
2017-10-14T16:59:17.584Z,101986.55
2017-10-14T17:01:46.249Z,101986.63
2017-10-14T17:04:14.888Z,101988.38
2017-10-14T17:06:43.574Z,101981.98
2017-10-14T17:09:12.198Z,101985.87
2017-10-14T17:11:40.858Z,101985.91
2017-10-14T17:14:09.531Z,101984.66
2017-10-14T17:16:38.159Z,101977.76
2017-10-14T17:19:06.829Z,101977.84
2017-10-14T17:21:35.528Z,101981.77
2017-10-14T17:24:04.194Z,101979.64
2017-10-14T17:26:32.809Z,101986.61
2017-10-14T17:29:01.494Z,101978.92
2017-10-14T17:31:30.109Z,101983.64
2017-10-14T17:33:58.806Z,101986.66
2017-10-14T17:36:34.127Z,101987.11
2017-10-14T17:39:02.811Z,101980.67
2017-10-14T17:41:31.419Z,101983.72
2017-10-14T17:44:00.045Z,101982.05
2017-10-14T17:46:28.714Z,101980.38
2017-10-14T17:48:57.384Z,101982.92
2017-10-14T17:51:26.011Z,101981.21
2017-10-14T17:53:54.617Z,101977.37
2017-10-14T17:56:23.285Z,101982.13
2017-10-14T17:58:51.902Z,101979.58
2017-10-14T18:01:20.563Z,101983.05
2017-10-14T18:03:49.238Z,101980.04
2017-10-14T18:06:17.854Z,101982.25
2017-10-14T18:08:46.517Z,101989.19
2017-10-14T18:11:15.242Z,101985.72
2017-10-14T18:13:43.880Z,101983.58
2017-10-14T18:16:12.558Z,101992.23
2017-10-14T18:18:41.177Z,101984.88
2017-10-14T18:21:09.862Z,101987.43
2017-10-14T18:23:38.539Z,101989.59
2017-10-14T18:26:07.164Z,101986.13
2017-10-14T18:28:35.827Z,102002.13
2017-10-14T18:31:04.449Z,101996.95
2017-10-14T18:33:33.091Z,101998.28
2017-10-14T18:36:01.787Z,102000.46
2017-10-14T18:38:30.418Z,102004.76
2017-10-14T18:40:59.043Z,102001.30
2017-10-14T18:43:27.699Z,102010.77
2017-10-14T18:45:56.313Z,102008.19
2017-10-14T18:48:24.991Z,102014.66
2017-10-14T18:50:53.703Z,102009.52
2017-10-14T18:53:22.326Z,102017.33
2017-10-14T18:55:50.997Z,102019.51
2017-10-14T18:58:19.650Z,102021.64
2017-10-14T19:00:48.314Z,102019.05
2017-10-14T19:03:16.935Z,102021.67
2017-10-14T19:05:45.546Z,102016.08
2017-10-14T19:08:14.228Z,102021.67
2017-10-14T19:10:42.871Z,102020.38
2017-10-14T19:13:11.534Z,102025.52
2017-10-14T19:15:40.196Z,102032.38
2017-10-14T19:18:08.830Z,102028.53
2017-10-14T19:20:37.512Z,102019.05
2017-10-14T19:23:06.211Z,102015.63
2017-10-14T19:25:34.826Z,102019.13
2017-10-14T19:28:03.342Z,102007.39
2017-10-14T19:30:32.024Z,102013.03
2017-10-14T19:33:00.640Z,102012.08
2017-10-14T19:35:29.256Z,102008.65
2017-10-14T19:37:57.932Z,102012.95
2017-10-14T19:40:26.605Z,102009.07
2017-10-14T19:42:55.218Z,102022.88
2017-10-14T19:45:23.907Z,102019.92
2017-10-14T19:47:52.524Z,102019.84
2017-10-14T19:50:21.214Z,102019.02
2017-10-14T19:52:49.879Z,102024.10
2017-10-14T19:55:18.506Z,102021.94
2017-10-14T19:57:47.186Z,102014.58
2017-10-14T20:00:15.810Z,102021.89
2017-10-14T20:02:44.467Z,102015.00
2017-10-14T20:05:13.108Z,102012.83
2017-10-14T20:07:41.785Z,102011.99
2017-10-14T20:10:10.410Z,102015.00
2017-10-14T20:12:39.088Z,102009.40
2017-10-14T20:15:07.731Z,102010.70
2017-10-14T20:17:37.774Z,102010.23
2017-10-14T20:20:06.391Z,102011.11
2017-10-14T20:22:35.056Z,102010.66
2017-10-14T20:25:03.739Z,102005.94
2017-10-14T20:27:36.915Z,102004.60
2017-10-14T20:30:05.432Z,101998.58
2017-10-14T20:32:34.112Z,102002.89
2017-10-14T20:35:02.723Z,102008.06
2017-10-14T20:37:35.702Z,102004.22
2017-10-14T20:40:04.375Z,102007.65
2017-10-14T20:42:33.004Z,101999.05
2017-10-14T20:45:01.676Z,102009.44
2017-10-14T20:47:34.236Z,102006.05
2017-10-14T20:50:02.916Z,102015.53
2017-10-14T20:52:31.603Z,102016.41
2017-10-14T20:55:00.227Z,102015.12
2017-10-14T20:57:28.854Z,102009.61
2017-10-14T20:59:57.523Z,102003.14
2017-10-14T21:02:26.019Z,101996.25
2017-10-14T21:04:54.704Z,101994.57
2017-10-14T21:07:23.326Z,101999.41
2017-10-14T21:09:52.178Z,101993.47
2017-10-14T21:12:20.834Z,101996.06
2017-10-14T21:14:49.510Z,101991.80
2017-10-14T21:17:18.134Z,101994.47
2017-10-14T21:19:46.831Z,101993.22
2017-10-14T21:22:15.483Z,101990.78
2017-10-14T21:24:44.099Z,101987.78
2017-10-14T21:27:12.758Z,101992.16
2017-10-14T21:29:41.384Z,101987.06
2017-10-14T21:32:10.041Z,101988.01
2017-10-14T21:34:38.579Z,101987.22
2017-10-14T21:37:07.203Z,101991.09
2017-10-14T21:39:35.805Z,101985.96
2017-10-14T21:42:04.495Z,101986.05
2017-10-14T21:44:33.364Z,101991.75
2017-10-14T21:47:02.130Z,101991.79
2017-10-14T21:49:30.754Z,101991.03
2017-10-14T21:51:59.369Z,101996.66
2017-10-14T21:54:28.044Z,101991.98
2017-10-14T21:56:56.682Z,101998.91
2017-10-14T21:59:25.338Z,102001.99
2017-10-14T22:01:54.008Z,102005.01
2017-10-14T22:04:22.621Z,102008.09
2017-10-14T22:06:51.303Z,102010.72
2017-10-14T22:09:19.951Z,102009.50
2017-10-14T22:11:48.463Z,102010.75
2017-10-14T22:14:17.147Z,102009.87
2017-10-14T22:16:45.766Z,102005.58
2017-10-14T22:19:14.463Z,101999.98
2017-10-14T22:21:43.081Z,101998.27
2017-10-14T22:24:11.749Z,102000.41
2017-10-14T22:26:40.405Z,102000.41
2017-10-14T22:29:09.037Z,101998.69
2017-10-14T22:31:37.699Z,102003.41
2017-10-14T22:34:06.315Z,102000.37
2017-10-14T22:36:34.951Z,101999.49
2017-10-14T22:39:03.647Z,101994.35
2017-10-14T22:41:32.397Z,101997.78
2017-10-14T22:44:01.055Z,102014.60
2017-10-14T22:46:29.678Z,102011.17
2017-10-14T22:48:58.336Z,102015.02
2017-10-14T22:51:26.966Z,102018.86
2017-10-14T22:53:55.631Z,102029.17
2017-10-14T22:56:24.355Z,102030.09
2017-10-14T22:58:52.983Z,102037.40
2017-10-14T23:01:21.671Z,102037.86
2017-10-14T23:03:50.299Z,102031.34
2017-10-14T23:06:18.845Z,102022.33
2017-10-14T23:08:47.471Z,102022.74
2017-10-14T23:11:16.096Z,102030.09
2017-10-14T23:13:44.783Z,102030.47
2017-10-14T23:16:13.412Z,102031.77
2017-10-14T23:18:42.061Z,102033.55
2017-10-14T23:21:10.725Z,102037.05
2017-10-14T23:23:39.358Z,102036.52
2017-10-14T23:26:07.987Z,102035.23
2017-10-14T23:28:36.655Z,102029.63
2017-10-14T23:31:05.287Z,102030.01
2017-10-14T23:33:33.951Z,102026.59
2017-10-14T23:36:02.586Z,102023.55
2017-10-14T23:38:31.211Z,102025.30
2017-10-14T23:40:59.906Z,102020.99
2017-10-14T23:43:28.534Z,102019.25
2017-10-14T23:45:57.160Z,102024.04
2017-10-14T23:48:25.838Z,102027.92
2017-10-14T23:50:54.459Z,102017.56
2017-10-14T23:53:23.118Z,102017.53
2017-10-14T23:55:51.743Z,102017.11
2017-10-14T23:58:20.357Z,102022.33
